Terminal Aerodrome Forecast
Issued by NWS

Home | Current Version | Previous Version | Text Only | Print | Product List | Glossary On
Versions: 1 2 3 4 5 6 7 8 9 10 11 12 13
000
FTUS43 KIWX 250500
TAFSBN
TAF
KSBN 250520Z 2506/2606 22005KT P6SM BKN050 OVC100
     FM250800 23005KT 6SM BR OVC030
     FM251100 24005KT 5SM BR SCT008 BKN015
     FM251600 30012G18KT P6SM SKC
     FM260000 29007KT P6SM FEW250=

USA.gov is the U.S. government's official web portal to all federal, state and local government web resources and services.